Terminal Aerodrome Forecast
Issued by NWS

Home | Current Version | Previous Version | Text Only | Print | Product List | Glossary Off
Versions: 1 2 3 4 5 6 7 8 9 10 11 12 13

076
FTUS43 KMPX 011735
TAFRWF
TAF
KRWF 011735Z 0118/0218 03012G18KT P6SM SCT050 BKN250
     FM012100 03010KT P6SM SCT250
     FM020100 VRB03KT P6SM SKC=

USA.gov is the U.S. government's official web portal to all federal, state and local government web resources and services.